McSherrystown, Pennsylvania
Current Conditions -  °F | °C
As of 7:53 AM on Friday 28 Nov 2014 (Local Time) from KTHV Reporting Station
Clear Clear  
Wind Chill: 22°   Ceiling: Unl
Heat Index: 30°   Visibility: 10mi
Dew Point: 21°   Wind: 9mph
Humidity: 69%   Direction: 290°WNW
Pressure: 30.25"   Gusts: NA
Location:  39.81°N, 77.01°W
Report Text: KTHV 281253Z AUTO 29008KT 10SM CLR M01/M06 A3025 RMK AO2 SLP251 T10111061
Loading
Personal Weather Stations






























Interactive Weather Map New forecast layout! Learn more

10-Day Weather Forecast

Advertisements
Track Severe Weather on mobile